Time;durP1;ratioP1;P1;durP2;ratioP2;P2;SDS_P1;SDS_P2;PMS_P1;PMS_P2;Temp;Humidity;BMP_temperature;BMP_pressure;BME280_temperature;BME280_humidity;BME280_pressure;Samples;Min_cycle;Max_cycle;Signal;HPM_P1;HPM_P2
2023/09/22 00:01:25;;;;;;;1.30;0.80;;;14.80;1.00;;;;;;5011226;28;20397;-88
2023/09/22 00:03:51;;;;;;;1.08;0.55;;;14.70;1.00;;;;;;5012528;28;20391;-87
2023/09/22 00:06:17;;;;;;;1.10;0.73;;;14.80;1.00;;;;;;5010768;28;20405;-87
2023/09/22 00:08:43;;;;;;;1.20;0.70;;;14.90;1.00;;;;;;5011046;28;21066;-87
2023/09/22 00:11:10;;;;;;;1.20;0.60;;;14.90;1.00;;;;;;5010431;28;20488;-87
2023/09/22 00:13:36;;;;;;;1.67;0.80;;;14.90;1.00;;;;;;5012012;28;20389;-87
2023/09/22 00:16:02;;;;;;;1.95;0.50;;;14.70;1.00;;;;;;5010865;28;20443;-87
2023/09/22 00:18:28;;;;;;;1.20;0.70;;;14.70;1.00;;;;;;5010636;28;20393;-87
2023/09/22 00:20:54;;;;;;;1.30;0.70;;;14.60;1.00;;;;;;5018204;28;20389;-88
2023/09/22 00:23:20;;;;;;;1.90;0.55;;;14.70;1.00;;;;;;5017929;28;20408;-87
2023/09/22 00:25:45;;;;;;;2.60;0.90;;;14.70;1.00;;;;;;5014834;28;20389;-87
2023/09/22 00:28:11;;;;;;;4.90;0.90;;;14.70;1.00;;;;;;5013636;28;20400;-87
2023/09/22 00:30:37;;;;;;;1.90;0.80;;;14.70;1.00;;;;;;5012296;28;20440;-87
2023/09/22 00:33:02;;;;;;;1.40;0.40;;;14.70;1.00;;;;;;5010351;28;20455;-87
2023/09/22 00:35:28;;;;;;;1.60;0.40;;;14.90;1.00;;;;;;5011463;28;20496;-87
2023/09/22 00:37:54;;;;;;;0.70;0.60;;;15.00;1.00;;;;;;5010341;28;20393;-87
2023/09/22 00:40:19;;;;;;;2.00;0.57;;;15.00;1.00;;;;;;5030479;28;20405;-87
2023/09/22 00:42:45;;;;;;;2.10;0.68;;;14.90;1.00;;;;;;5034255;28;20407;-88
2023/09/22 00:45:11;;;;;;;1.90;0.70;;;15.10;1.00;;;;;;5034328;28;20435;-88
2023/09/22 00:47:37;;;;;;;0.90;0.50;;;15.00;1.00;;;;;;5031721;28;20433;-87
2023/09/22 00:50:03;;;;;;;2.00;0.80;;;15.20;1.00;;;;;;5010697;28;20469;-86
2023/09/22 00:52:30;;;;;;;0.77;0.60;;;15.20;1.00;;;;;;5010212;28;20744;-86
2023/09/22 00:54:58;;;;;;;0.98;0.68;;;15.10;1.00;;;;;;5030590;28;20487;-88
2023/09/22 00:57:24;;;;;;;1.70;0.60;;;15.00;1.00;;;;;;5034379;28;20421;-87
2023/09/22 00:59:50;;;;;;;1.10;0.63;;;15.00;1.00;;;;;;5033798;28;20428;-87
2023/09/22 01:02:16;;;;;;;1.10;0.60;;;14.90;1.00;;;;;;5011936;28;20393;-87
2023/09/22 01:04:41;;;;;;;1.30;0.70;;;14.60;1.00;;;;;;5010442;28;20400;-88
2023/09/22 01:07:09;;;;;;;1.40;0.60;;;15.00;1.00;;;;;;5009718;28;20905;-87
2023/09/22 01:09:36;;;;;;;1.00;0.70;;;14.90;1.00;;;;;;5009618;28;20396;-88
2023/09/22 01:12:02;;;;;;;2.20;0.60;;;14.80;1.00;;;;;;5010106;28;20884;-87
2023/09/22 01:14:29;;;;;;;1.20;0.60;;;14.80;1.00;;;;;;5010202;28;20925;-87
2023/09/22 01:16:55;;;;;;;1.35;0.70;;;14.80;1.00;;;;;;5011360;28;20471;-86
2023/09/22 01:19:20;;;;;;;1.00;0.60;;;14.80;1.00;;;;;;5010531;28;20419;-87
2023/09/22 01:21:46;;;;;;;1.60;0.60;;;14.70;1.00;;;;;;5017680;28;20423;-87
2023/09/22 01:24:13;;;;;;;0.80;0.60;;;14.80;1.00;;;;;;5011180;28;20447;-87
2023/09/22 01:26:39;;;;;;;1.77;0.52;;;14.80;1.00;;;;;;5009903;28;20424;-87
2023/09/22 01:29:06;;;;;;;1.90;0.60;;;14.90;1.00;;;;;;5009754;28;20938;-87
2023/09/22 01:31:33;;;;;;;1.35;0.60;;;14.80;1.00;;;;;;5010934;28;20407;-87
2023/09/22 01:34:00;;;;;;;0.90;0.60;;;14.90;1.00;;;;;;5009360;28;20416;-87
2023/09/22 01:36:26;;;;;;;0.70;0.70;;;14.90;1.00;;;;;;5009676;28;20385;-88
2023/09/22 01:38:51;;;;;;;2.20;0.70;;;14.90;1.00;;;;;;5009727;28;20415;-87
2023/09/22 01:41:17;;;;;;;1.27;0.60;;;14.70;1.00;;;;;;5010262;28;20454;-87
2023/09/22 01:43:42;;;;;;;0.80;0.60;;;14.80;1.00;;;;;;5009800;28;20480;-87
2023/09/22 01:46:08;;;;;;;0.70;0.60;;;14.50;1.00;;;;;;5010085;28;20409;-87
2023/09/22 01:48:33;;;;;;;1.10;0.80;;;14.60;1.00;;;;;;5016461;28;20480;-86
2023/09/22 01:51:02;;;;;;;1.20;0.80;;;14.70;1.00;;;;;;5013062;28;20566;-86
2023/09/22 01:53:28;;;;;;;0.80;0.60;;;14.80;1.00;;;;;;5011532;28;20407;-87
2023/09/22 01:55:54;;;;;;;1.30;0.70;;;14.90;1.00;;;;;;5009421;28;20413;-87
2023/09/22 01:58:20;;;;;;;1.40;0.70;;;14.90;1.00;;;;;;5009424;28;20388;-87
2023/09/22 02:00:45;;;;;;;1.10;0.80;;;14.80;1.00;;;;;;5010898;28;20404;-88
2023/09/22 02:03:11;;;;;;;1.30;0.50;;;14.80;1.00;;;;;;5009653;28;20399;-88
2023/09/22 02:05:36;;;;;;;1.25;0.73;;;14.90;1.00;;;;;;5010022;28;20388;-87
2023/09/22 02:08:02;;;;;;;0.80;0.60;;;14.90;1.00;;;;;;5015122;28;20415;-87
2023/09/22 02:10:28;;;;;;;1.60;1.00;;;14.80;1.00;;;;;;5012870;28;20711;-87
2023/09/22 02:12:54;;;;;;;1.13;0.70;;;14.70;1.00;;;;;;5013364;28;20393;-88
2023/09/22 02:15:19;;;;;;;1.13;0.60;;;14.70;1.00;;;;;;5029073;28;20466;-88
2023/09/22 02:17:46;;;;;;;0.80;0.70;;;14.80;1.00;;;;;;5037503;28;20392;-88
2023/09/22 02:20:22;;;;;;;1.40;0.90;;;14.70;1.00;;;;;;5021507;28;20470;-88
2023/09/22 02:22:49;;;;;;;0.95;0.70;;;14.80;1.00;;;;;;5033213;28;20441;-88
2023/09/22 02:25:16;;;;;;;1.30;0.80;;;14.70;1.00;;;;;;5032684;28;20475;-88
2023/09/22 02:27:43;;;;;;;1.67;0.80;;;14.70;1.00;;;;;;5015016;28;20412;-88
2023/09/22 02:30:10;;;;;;;2.28;0.88;;;14.80;1.00;;;;;;5012925;28;20396;-88
2023/09/22 02:32:36;;;;;;;1.30;0.70;;;14.70;1.00;;;;;;5013529;28;20396;-88
2023/09/22 02:35:01;;;;;;;1.50;0.73;;;14.70;1.00;;;;;;5019402;28;20951;-87
2023/09/22 02:37:29;;;;;;;1.00;0.77;;;14.70;1.00;;;;;;5037005;28;20416;-88
2023/09/22 02:39:54;;;;;;;0.60;0.60;;;14.60;1.00;;;;;;5038256;28;20392;-88
2023/09/22 02:42:20;;;;;;;1.00;0.80;;;14.70;1.00;;;;;;5038519;28;20403;-88
2023/09/22 02:44:45;;;;;;;2.00;1.00;;;14.70;1.00;;;;;;5057838;23;20412;-87
2023/09/22 02:47:11;;;;;;;1.73;0.73;;;14.70;1.00;;;;;;5013139;28;20393;-87
2023/09/22 02:49:37;;;;;;;1.05;0.75;;;14.60;1.00;;;;;;5012459;28;20434;-85
2023/09/22 02:52:02;;;;;;;0.85;0.70;;;14.60;1.00;;;;;;5012018;28;20468;-87
2023/09/22 02:54:28;;;;;;;1.00;0.90;;;14.60;1.00;;;;;;5012300;28;20793;-87
2023/09/22 02:56:54;;;;;;;2.78;0.70;;;14.60;1.00;;;;;;4993710;28;20402;-87
2023/09/22 02:59:20;;;;;;;1.17;0.70;;;14.70;1.00;;;;;;4992670;28;20402;-86
2023/09/22 03:01:46;;;;;;;1.60;0.70;;;14.80;1.00;;;;;;4993441;28;20502;-86
2023/09/22 03:04:11;;;;;;;1.53;1.00;;;14.60;1.00;;;;;;4992613;28;20433;-87
2023/09/22 03:06:37;;;;;;;2.30;0.77;;;14.70;1.00;;;;;;4992524;28;20401;-86
2023/09/22 03:09:09;;;;;;;1.20;0.80;;;14.70;1.00;;;;;;4993755;28;20426;-86
2023/09/22 03:11:38;;;;;;;1.10;0.80;;;14.70;1.00;;;;;;4993379;28;20735;-86
2023/09/22 03:14:04;;;;;;;1.90;1.00;;;14.60;1.00;;;;;;4993898;28;20493;-87
2023/09/22 03:16:30;;;;;;;0.70;0.57;;;14.60;1.00;;;;;;4993160;28;20426;-86
2023/09/22 03:18:56;;;;;;;1.00;0.90;;;14.70;1.00;;;;;;4993709;28;20449;-85
2023/09/22 03:21:23;;;;;;;1.15;0.70;;;14.70;1.00;;;;;;4993151;28;20422;-86
2023/09/22 03:23:52;;;;;;;2.10;1.00;;;14.70;1.00;;;;;;4992468;28;20491;-87
2023/09/22 03:26:18;;;;;;;1.15;0.73;;;14.70;1.00;;;;;;4996182;28;20414;-88
2023/09/22 03:28:45;;;;;;;1.80;1.00;;;14.70;1.00;;;;;;5018046;28;20394;-88
2023/09/22 03:31:10;;;;;;;1.30;0.70;;;14.80;1.00;;;;;;5016749;28;20402;-88
2023/09/22 03:33:36;;;;;;;3.10;0.70;;;14.70;1.00;;;;;;4995667;28;20398;-87
2023/09/22 03:36:02;;;;;;;2.58;0.80;;;14.70;1.00;;;;;;4992956;28;20442;-87
2023/09/22 03:38:29;;;;;;;1.60;0.80;;;14.70;1.00;;;;;;4994123;28;20470;-87
2023/09/22 03:41:00;;;;;;;2.40;0.90;;;14.70;1.00;;;;;;4993382;28;20874;-87
2023/09/22 03:43:26;;;;;;;1.20;0.70;;;14.80;1.00;;;;;;4993043;28;20406;-88
2023/09/22 03:45:56;;;;;;;1.20;0.75;;;15.00;1.00;;;;;;4993627;28;20402;-87
2023/09/22 03:48:22;;;;;;;1.02;0.60;;;14.90;1.00;;;;;;4994101;28;20399;-87
2023/09/22 03:50:48;;;;;;;1.67;0.70;;;14.90;1.00;;;;;;4992478;28;20413;-87
2023/09/22 03:53:13;;;;;;;0.90;0.60;;;15.00;1.00;;;;;;4995088;28;20394;-87
2023/09/22 03:55:39;;;;;;;2.30;0.90;;;15.20;1.00;;;;;;4994823;28;20770;-87
2023/09/22 03:58:05;;;;;;;1.70;0.70;;;15.30;1.00;;;;;;4995214;28;20469;-87
2023/09/22 04:00:31;;;;;;;0.85;0.60;;;15.40;1.00;;;;;;4995152;28;20477;-87
2023/09/22 04:02:57;;;;;;;0.87;0.50;;;15.50;1.00;;;;;;4996553;28;20413;-87
2023/09/22 04:05:22;;;;;;;1.15;0.60;;;15.50;1.00;;;;;;4993313;28;20394;-87
2023/09/22 04:07:48;;;;;;;0.90;0.60;;;15.70;1.00;;;;;;4992460;28;20470;-87
2023/09/22 04:10:16;;;;;;;1.42;0.80;;;15.60;1.00;;;;;;5014107;28;20422;-88
2023/09/22 04:12:42;;;;;;;0.85;0.75;;;15.80;1.00;;;;;;5014899;28;20386;-87
2023/09/22 04:15:08;;;;;;;1.48;0.90;;;15.90;1.00;;;;;;4991843;28;20406;-87
2023/09/22 04:17:34;;;;;;;1.70;0.70;;;15.80;1.00;;;;;;4993183;28;20389;-87
2023/09/22 04:20:01;;;;;;;1.20;0.70;;;15.80;1.00;;;;;;5001580;28;20472;-87
2023/09/22 04:22:28;;;;;;;0.80;0.70;;;15.90;1.00;;;;;;5011119;28;20384;-87
2023/09/22 04:25:00;;;;;;;1.10;0.70;;;15.90;1.00;;;;;;5010843;28;20391;-87
2023/09/22 04:27:32;;;;;;;1.10;0.50;;;15.80;1.00;;;;;;4998674;28;20422;-87
2023/09/22 04:29:59;;;;;;;1.50;0.70;;;15.80;1.00;;;;;;5000451;28;20402;-87
2023/09/22 04:32:28;;;;;;;0.70;0.50;;;15.90;1.00;;;;;;5012149;28;20410;-88
2023/09/22 04:34:53;;;;;;;1.50;0.70;;;15.90;1.00;;;;;;4998594;28;20752;-87
2023/09/22 04:37:19;;;;;;;1.10;0.50;;;15.90;1.00;;;;;;4996562;28;20401;-87
2023/09/22 04:39:44;;;;;;;1.73;0.60;;;15.90;1.00;;;;;;4994062;28;20394;-87
2023/09/22 04:42:10;;;;;;;1.00;0.77;;;15.80;1.00;;;;;;4994787;28;20918;-88
2023/09/22 04:44:36;;;;;;;1.20;0.60;;;15.80;1.00;;;;;;4994000;28;20920;-87
2023/09/22 04:47:02;;;;;;;1.57;0.70;;;16.00;1.00;;;;;;4995233;28;20474;-87
2023/09/22 04:49:27;;;;;;;1.37;0.70;;;15.50;1.00;;;;;;4988865;28;20410;-87
2023/09/22 04:51:53;;;;;;;0.90;0.60;;;17.80;1.00;;;;;;4985398;28;20396;-88
2023/09/22 04:54:19;;;;;;;0.80;0.60;;;16.00;1.00;;;;;;4990277;28;21041;-87
2023/09/22 04:56:45;;;;;;;0.95;0.68;;;16.40;1.00;;;;;;5001812;28;20424;-89
2023/09/22 04:59:10;;;;;;;0.90;0.50;;;16.00;1.00;;;;;;4994260;28;20417;-88
2023/09/22 05:01:36;;;;;;;1.80;0.60;;;16.10;1.00;;;;;;4990731;28;20420;-88
2023/09/22 05:04:03;;;;;;;2.80;0.80;;;16.00;1.00;;;;;;4990794;28;20406;-87
2023/09/22 05:06:28;;;;;;;2.20;0.90;;;16.00;1.00;;;;;;4984199;28;20402;-89
2023/09/22 05:08:54;;;;;;;1.97;1.00;;;15.80;1.00;;;;;;4989835;28;20437;-88
2023/09/22 05:11:20;;;;;;;0.90;0.60;;;16.90;1.00;;;;;;4988344;28;20478;-88
2023/09/22 05:13:46;;;;;;;1.80;0.80;;;16.60;1.00;;;;;;4985608;28;20399;-88
2023/09/22 05:16:15;;;;;;;2.67;0.70;;;16.80;1.00;;;;;;4982936;28;20469;-87
2023/09/22 05:18:40;;;;;;;2.00;0.80;;;15.40;1.00;;;;;;4984897;28;20393;-87
2023/09/22 05:21:09;;;;;;;1.47;0.70;;;15.70;1.00;;;;;;4985489;28;20399;-87
2023/09/22 05:23:35;;;;;;;0.95;0.80;;;15.60;1.00;;;;;;4996771;28;20417;-89
2023/09/22 05:26:08;;;;;;;1.00;0.60;;;15.60;1.00;;;;;;5002592;28;20382;-87
2023/09/22 05:28:35;;;;;;;1.15;0.60;;;15.70;1.00;;;;;;4998714;28;20421;-87
2023/09/22 05:31:03;;;;;;;0.77;0.55;;;15.90;1.00;;;;;;4998679;28;20399;-88
2023/09/22 05:33:29;;;;;;;0.60;0.52;;;15.30;1.00;;;;;;4992911;28;20485;-88
2023/09/22 05:35:54;;;;;;;1.80;0.80;;;15.20;1.00;;;;;;4992339;28;20474;-88
2023/09/22 05:38:20;;;;;;;2.10;0.90;;;15.20;1.00;;;;;;4991899;28;20398;-88
2023/09/22 05:40:45;;;;;;;0.75;0.60;;;15.20;1.00;;;;;;4991588;28;20428;-91
2023/09/22 05:43:12;;;;;;;1.10;0.70;;;15.30;1.00;;;;;;4993419;28;20505;-89
2023/09/22 05:45:38;;;;;;;1.20;0.60;;;15.20;1.00;;;;;;4977370;28;20502;-89
2023/09/22 05:48:03;;;;;;;0.80;0.80;;;15.10;1.00;;;;;;5007752;28;20399;-89
2023/09/22 05:50:29;;;;;;;1.52;0.80;;;15.20;1.00;;;;;;5006570;28;20397;-91
2023/09/22 05:52:55;;;;;;;1.50;0.60;;;15.00;1.00;;;;;;5018904;28;20390;-89
2023/09/22 05:55:21;;;;;;;2.58;0.90;;;14.80;1.00;;;;;;5000493;28;20421;-90
2023/09/22 05:57:47;;;;;;;1.30;0.80;;;15.40;1.00;;;;;;4998707;28;20421;-89
2023/09/22 06:00:17;;;;;;;2.08;0.80;;;14.50;1.00;;;;;;4996701;28;20410;-90
2023/09/22 06:02:50;;;;;;;0.88;0.80;;;14.60;1.00;;;;;;5000985;28;20393;-89
2023/09/22 06:05:22;;;;;;;2.50;0.80;;;14.70;1.00;;;;;;4995565;28;20415;-89
2023/09/22 06:07:48;;;;;;;2.20;0.77;;;14.70;1.00;;;;;;4978014;28;20392;-89
2023/09/22 06:10:13;;;;;;;1.00;0.90;;;14.70;1.00;;;;;;4975868;28;20439;-89
2023/09/22 06:12:39;;;;;;;1.23;0.70;;;14.40;1.00;;;;;;4975155;28;20384;-89
2023/09/22 06:15:09;;;;;;;1.80;1.03;;;14.70;1.00;;;;;;4992445;28;20830;-87
2023/09/22 06:17:36;;;;;;;2.25;0.80;;;14.70;1.00;;;;;;4994688;28;20468;-88
2023/09/22 06:20:13;;;;;;;2.87;0.73;;;14.60;1.00;;;;;;5000534;28;20821;-87
2023/09/22 06:22:40;;;;;;;2.78;0.90;;;14.60;1.00;;;;;;5034297;28;20401;-87
2023/09/22 06:25:08;;;;;;;1.40;0.70;;;14.70;1.00;;;;;;5017552;28;20467;-88
2023/09/22 06:27:33;;;;;;;1.60;0.68;;;14.70;1.00;;;;;;5013718;28;20397;-88
2023/09/22 06:30:00;;;;;;;2.10;1.00;;;14.80;1.00;;;;;;5002364;28;20414;-87
2023/09/22 06:32:26;;;;;;;2.40;0.80;;;14.60;1.00;;;;;;4993697;28;20398;-88
2023/09/22 06:34:53;;;;;;;2.08;0.60;;;14.60;1.00;;;;;;4995271;28;20898;-88
2023/09/22 06:37:19;;;;;;;1.20;0.68;;;14.60;1.00;;;;;;4994833;28;20415;-87
2023/09/22 06:39:45;;;;;;;3.15;1.20;;;14.40;1.00;;;;;;4994235;28;20387;-87
2023/09/22 06:42:11;;;;;;;1.38;0.60;;;14.40;1.00;;;;;;4993678;28;20405;-88
2023/09/22 06:44:37;;;;;;;2.10;0.80;;;14.40;1.00;;;;;;4994844;28;20390;-89
2023/09/22 06:47:04;;;;;;;1.70;0.70;;;14.20;1.00;;;;;;4993166;28;20399;-89
2023/09/22 06:49:30;;;;;;;2.53;0.90;;;13.80;1.00;;;;;;4993446;28;20942;-89
2023/09/22 06:51:55;;;;;;;1.90;0.90;;;14.90;1.00;;;;;;4992643;28;20405;-88
2023/09/22 06:54:21;;;;;;;2.88;0.70;;;15.00;1.00;;;;;;4993633;28;20460;-89
2023/09/22 06:56:46;;;;;;;1.73;0.80;;;14.40;1.00;;;;;;4992975;28;20464;-88
2023/09/22 06:59:13;;;;;;;1.70;0.70;;;14.20;1.00;;;;;;4993260;28;20432;-89
2023/09/22 07:01:40;;;;;;;1.13;0.82;;;14.20;1.00;;;;;;4993125;28;20402;-88
2023/09/22 07:04:09;;;;;;;2.13;0.90;;;14.50;1.00;;;;;;4993443;28;20484;-89
2023/09/22 07:06:37;;;;;;;1.33;0.60;;;14.10;1.00;;;;;;4993407;28;20394;-88
2023/09/22 07:09:09;;;;;;;1.15;0.60;;;14.20;1.00;;;;;;5006521;28;20454;-88
2023/09/22 07:11:39;;;;;;;1.00;0.55;;;14.20;1.00;;;;;;5012786;28;20391;-89
2023/09/22 07:14:06;;;;;;;1.83;0.70;;;14.20;1.00;;;;;;5005221;28;20513;-88
2023/09/22 07:16:32;;;;;;;1.88;0.80;;;14.30;1.00;;;;;;5000146;28;20788;-88
2023/09/22 07:18:58;;;;;;;1.30;0.50;;;13.80;1.00;;;;;;5010193;28;20908;-88
2023/09/22 07:21:23;;;;;;;1.47;0.60;;;14.20;1.00;;;;;;5034683;28;20380;-90
2023/09/22 07:23:49;;;;;;;1.10;0.60;;;14.40;1.00;;;;;;5038034;28;20533;-90
2023/09/22 07:26:14;;;;;;;0.80;0.60;;;14.30;1.00;;;;;;5036691;28;20447;-89
2023/09/22 07:28:40;;;;;;;1.90;0.60;;;14.40;1.00;;;;;;5018408;28;20465;-89
2023/09/22 07:31:12;;;;;;;0.87;0.67;;;14.70;1.00;;;;;;5014466;28;20408;-89
2023/09/22 07:33:38;;;;;;;2.60;0.70;;;14.80;1.00;;;;;;5007181;28;20391;-89
2023/09/22 07:36:03;;;;;;;1.48;0.90;;;14.80;1.00;;;;;;5000490;28;20834;-90
2023/09/22 07:38:29;;;;;;;0.95;0.60;;;14.80;1.00;;;;;;4993515;28;20473;-90
2023/09/22 07:40:55;;;;;;;3.20;0.70;;;14.60;1.00;;;;;;4993185;28;20395;-90
2023/09/22 07:43:21;;;;;;;3.15;0.75;;;14.70;1.00;;;;;;4993773;28;20812;-90
2023/09/22 07:45:49;;;;;;;0.87;0.70;;;16.30;1.00;;;;;;4992803;28;20407;-90
2023/09/22 07:48:15;;;;;;;1.40;0.90;;;14.90;1.00;;;;;;4992892;28;20762;-87
2023/09/22 07:50:41;;;;;;;1.90;0.52;;;15.90;1.00;;;;;;4993341;28;20394;-89
2023/09/22 07:53:07;;;;;;;1.37;0.67;;;14.80;1.00;;;;;;4993056;28;20414;-88
2023/09/22 07:55:32;;;;;;;3.37;0.80;;;15.30;1.00;;;;;;4993355;28;20441;-88
2023/09/22 07:57:58;;;;;;;1.48;0.70;;;17.10;1.00;;;;;;5008191;28;20399;-90
2023/09/22 08:00:26;;;;;;;1.60;0.70;;;16.50;1.00;;;;;;4998047;28;20386;-88
2023/09/22 08:02:52;;;;;;;1.35;0.77;;;15.60;1.00;;;;;;4995113;28;20403;-88
2023/09/22 08:05:18;;;;;;;1.20;0.80;;;15.70;1.00;;;;;;4993300;28;20760;-88
2023/09/22 08:07:45;;;;;;;1.58;0.70;;;17.80;1.00;;;;;;5007230;28;20397;-89
2023/09/22 08:10:12;;;;;;;3.55;1.05;;;15.50;1.00;;;;;;5001886;28;20482;-88
2023/09/22 08:12:41;;;;;;;1.80;0.70;;;15.90;1.00;;;;;;4998250;28;20394;-88
2023/09/22 08:15:08;;;;;;;1.30;0.68;;;15.20;1.00;;;;;;5006766;28;20490;-90
2023/09/22 08:17:34;;;;;;;1.50;0.77;;;15.40;1.00;;;;;;5008241;28;20426;-88
2023/09/22 08:19:59;;;;;;;1.20;0.70;;;15.70;1.00;;;;;;5006625;28;20407;-89
2023/09/22 08:22:26;;;;;;;0.90;0.53;;;15.60;1.00;;;;;;5017741;28;20397;-89
2023/09/22 08:24:57;;;;;;;1.38;0.68;;;15.60;1.00;;;;;;5021667;28;20388;-90
2023/09/22 08:27:22;;;;;;;1.75;0.70;;;15.60;1.00;;;;;;5020752;28;20425;-89
2023/09/22 08:29:50;;;;;;;3.70;0.90;;;15.60;1.00;;;;;;5003850;28;20825;-89
2023/09/22 08:32:16;;;;;;;1.55;0.68;;;15.60;1.00;;;;;;4993708;28;20929;-89
2023/09/22 08:34:41;;;;;;;1.90;0.70;;;15.60;1.00;;;;;;4994368;28;20410;-89
2023/09/22 08:37:07;;;;;;;0.80;0.70;;;15.70;1.00;;;;;;4996583;28;20489;-89
2023/09/22 08:39:33;;;;;;;2.00;0.80;;;16.70;1.00;;;;;;4996128;28;20418;-89
2023/09/22 08:41:59;;;;;;;2.75;0.80;;;16.00;1.00;;;;;;4996786;28;20897;-88
2023/09/22 08:44:26;;;;;;;2.65;0.95;;;17.10;1.00;;;;;;4994668;28;20398;-89
2023/09/22 08:46:52;;;;;;;3.37;1.00;;;15.80;1.00;;;;;;4998558;28;20400;-90
2023/09/22 08:49:21;;;;;;;3.50;0.70;;;17.50;1.00;;;;;;4997330;28;20410;-89
2023/09/22 08:51:50;;;;;;;1.90;0.70;;;18.20;1.00;;;;;;4998352;28;20442;-90
2023/09/22 08:54:15;;;;;;;3.10;1.00;;;15.90;1.00;;;;;;5007794;28;20790;-86
2023/09/22 08:56:41;;;;;;;2.90;0.90;;;16.80;1.00;;;;;;4994848;28;20450;-87
2023/09/22 08:59:10;;;;;;;2.38;0.80;;;16.00;1.00;;;;;;4995640;28;20398;-89
2023/09/22 09:01:36;;;;;;;2.17;0.90;;;16.40;1.00;;;;;;4991979;28;20894;-88
2023/09/22 09:04:31;;;;;;;2.60;1.10;;;15.90;1.00;;;;;;4991098;28;20395;-89
2023/09/22 09:06:56;;;;;;;2.50;0.80;;;15.90;1.00;;;;;;4991708;28;20418;-90
2023/09/22 09:09:22;;;;;;;3.50;0.90;;;16.00;1.00;;;;;;4991429;28;20382;-89
2023/09/22 09:11:59;;;;;;;2.80;1.00;;;16.20;1.00;;;;;;4992386;28;20390;-89
2023/09/22 09:14:28;;;;;;;2.30;0.90;;;16.00;1.00;;;;;;4991666;28;20402;-87
2023/09/22 09:16:56;;;;;;;2.50;0.80;;;15.90;1.00;;;;;;4991189;28;20403;-88
2023/09/22 09:19:22;;;;;;;3.92;1.40;;;15.90;1.00;;;;;;4991677;28;20490;-88
2023/09/22 09:22:09;;;;;;;2.50;1.10;;;16.00;1.00;;;;;;4991347;28;20477;-88
2023/09/22 09:24:35;;;;;;;1.50;1.10;;;16.10;1.00;;;;;;4991856;28;20390;-88
2023/09/22 09:27:21;;;;;;;3.58;0.98;;;16.10;1.00;;;;;;4991710;28;20387;-88
2023/09/22 09:29:50;;;;;;;3.75;1.30;;;16.10;1.00;;;;;;4993392;28;20409;-88
2023/09/22 09:32:27;;;;;;;2.13;1.00;;;16.00;1.00;;;;;;4992248;28;20429;-87
2023/09/22 09:34:53;;;;;;;2.23;0.77;;;16.10;1.00;;;;;;4993362;28;20588;-88
2023/09/22 09:37:19;;;;;;;1.60;0.63;;;16.30;1.00;;;;;;4992572;28;20394;-88
2023/09/22 09:39:52;;;;;;;3.42;1.25;;;16.30;1.00;;;;;;4992667;28;20416;-88
2023/09/22 09:42:19;;;;;;;2.35;0.77;;;15.10;1.00;;;;;;4992474;28;20816;-88
2023/09/22 09:44:53;;;;;;;3.05;0.90;;;16.60;1.00;;;;;;4992283;28;20763;-89
2023/09/22 09:47:21;;;;;;;1.70;0.93;;;16.60;1.00;;;;;;4992588;28;20398;-88
2023/09/22 09:49:54;;;;;;;3.10;0.97;;;16.70;1.00;;;;;;4992316;28;20426;-89
2023/09/22 09:52:35;;;;;;;4.70;1.00;;;16.80;1.00;;;;;;5006751;28;20387;-90
2023/09/22 09:55:08;;;;;;;2.80;0.70;;;16.90;1.00;;;;;;5000064;28;20500;-88
2023/09/22 09:57:39;;;;;;;3.00;1.02;;;17.00;1.00;;;;;;4992618;28;20418;-89
2023/09/22 10:00:14;;;;;;;2.30;1.20;;;16.80;1.00;;;;;;4993294;28;20429;-87
2023/09/22 10:02:44;;;;;;;2.27;1.03;;;16.80;1.00;;;;;;4993947;28;20401;-89
2023/09/22 10:05:15;;;;;;;3.35;0.80;;;16.70;1.00;;;;;;4992622;28;20393;-89
2023/09/22 10:07:43;;;;;;;4.05;0.85;;;17.00;1.00;;;;;;4992438;28;20484;-89
2023/09/22 10:10:11;;;;;;;1.48;0.75;;;16.60;1.00;;;;;;5000216;28;20437;-90
2023/09/22 10:12:37;;;;;;;3.30;1.20;;;17.40;1.00;;;;;;5007075;28;20402;-88
2023/09/22 10:15:05;;;;;;;3.15;0.90;;;17.60;1.00;;;;;;4991064;28;20414;-89
2023/09/22 10:17:31;;;;;;;2.35;0.70;;;17.00;1.00;;;;;;4992592;28;20406;-89
2023/09/22 10:20:02;;;;;;;3.20;1.10;;;17.50;1.00;;;;;;4991669;28;20425;-88
2023/09/22 10:22:29;;;;;;;1.60;0.90;;;17.20;1.00;;;;;;4991987;28;20410;-88
2023/09/22 10:25:15;;;;;;;2.30;1.10;;;16.80;1.00;;;;;;4991215;28;20426;-88
2023/09/22 10:27:50;;;;;;;2.45;1.00;;;16.80;1.00;;;;;;4983639;28;20417;-88
2023/09/22 10:30:16;;;;;;;2.83;1.10;;;16.80;1.00;;;;;;4995103;28;20405;-88
2023/09/22 10:32:42;;;;;;;2.47;0.87;;;16.80;1.00;;;;;;4994643;28;20398;-88
2023/09/22 10:35:12;;;;;;;2.58;0.90;;;16.90;1.00;;;;;;4994153;28;20782;-89
2023/09/22 10:38:04;;;;;;;2.20;1.00;;;16.80;1.00;;;;;;4998592;28;20839;-89
2023/09/22 10:40:30;;;;;;;3.20;1.10;;;16.70;1.00;;;;;;4994894;28;20391;-89
2023/09/22 10:42:56;;;;;;;2.53;1.10;;;16.70;1.00;;;;;;4997514;28;20396;-90
2023/09/22 10:45:25;;;;;;;3.08;0.93;;;16.70;1.00;;;;;;4995121;28;20452;-90
2023/09/22 10:47:52;;;;;;;3.08;0.88;;;16.80;1.00;;;;;;4995788;28;20485;-87
2023/09/22 10:50:26;;;;;;;3.50;1.10;;;17.00;1.00;;;;;;4997860;28;20394;-88
2023/09/22 10:53:03;;;;;;;3.00;1.00;;;17.10;1.00;;;;;;5005786;28;20394;-87
2023/09/22 10:55:39;;;;;;;3.88;1.00;;;17.40;1.00;;;;;;5012555;28;20395;-87
2023/09/22 10:58:05;;;;;;;3.10;0.90;;;17.40;1.00;;;;;;5017017;28;20398;-89
2023/09/22 11:00:32;;;;;;;3.42;1.15;;;17.70;1.00;;;;;;5019663;28;20418;-88
2023/09/22 11:03:08;;;;;;;3.88;1.00;;;17.10;1.00;;;;;;5019004;28;20441;-89
2023/09/22 11:05:38;;;;;;;3.80;1.13;;;17.90;1.00;;;;;;5016799;28;20437;-88
2023/09/22 11:08:17;;;;;;;2.90;1.00;;;17.80;1.00;;;;;;4996141;28;20786;-88
2023/09/22 11:10:54;;;;;;;3.28;1.00;;;17.80;1.00;;;;;;4995603;28;20383;-87
2023/09/22 11:13:21;;;;;;;6.30;1.17;;;18.00;1.00;;;;;;4994799;28;20465;-88
2023/09/22 11:15:56;;;;;;;2.90;1.33;;;18.10;1.00;;;;;;4995568;28;20802;-88
2023/09/22 11:18:33;;;;;;;2.53;0.80;;;17.60;1.00;;;;;;4996779;28;20399;-89
2023/09/22 11:21:02;;;;;;;2.10;1.10;;;19.10;1.00;;;;;;4999326;28;20395;-88
2023/09/22 11:23:28;;;;;;;2.83;1.20;;;19.30;1.00;;;;;;5001178;28;20498;-89
2023/09/22 11:25:57;;;;;;;1.90;0.80;;;19.50;1.00;;;;;;4995098;28;20406;-88
2023/09/22 11:28:23;;;;;;;2.60;1.00;;;19.70;1.00;;;;;;4990798;28;20400;-88
2023/09/22 11:30:50;;;;;;;2.00;0.70;;;20.50;1.00;;;;;;4988149;28;20413;-89
2023/09/22 11:33:16;;;;;;;2.60;0.80;;;21.60;1.00;;;;;;4988615;28;20391;-88
2023/09/22 11:35:42;;;;;;;2.42;0.90;;;21.10;1.00;;;;;;4992298;28;20834;-88
2023/09/22 11:38:31;;;;;;;1.40;0.70;;;21.30;1.00;;;;;;4993015;28;20422;-88
2023/09/22 11:41:11;;;;;;;2.53;0.90;;;21.00;1.00;;;;;;4990785;28;20409;-89
2023/09/22 11:43:42;;;;;;;2.97;0.90;;;20.20;1.00;;;;;;4990425;28;20403;-88
2023/09/22 11:46:15;;;;;;;2.83;1.00;;;21.60;1.00;;;;;;4991672;28;20410;-89
2023/09/22 11:49:02;;;;;;;1.98;0.88;;;22.10;1.00;;;;;;4988576;28;20406;-89
2023/09/22 11:51:54;;;;;;;2.75;0.85;;;20.30;1.00;;;;;;4983719;28;20403;-89
2023/09/22 11:54:21;;;;;;;3.40;1.10;;;20.70;1.00;;;;;;5005172;28;20415;-88
2023/09/22 11:56:48;;;;;;;2.33;0.90;;;21.00;1.00;;;;;;4994244;28;20391;-88
2023/09/22 11:59:22;;;;;;;2.55;1.08;;;21.80;1.00;;;;;;5005551;28;20399;-90
2023/09/22 12:01:49;;;;;;;1.48;0.80;;;21.20;1.00;;;;;;4999337;28;20442;-89
2023/09/22 12:04:16;;;;;;;2.80;0.80;;;20.70;1.00;;;;;;4995817;28;20814;-90
2023/09/22 12:06:41;;;;;;;2.78;0.80;;;21.10;1.00;;;;;;5009377;28;20390;-89
2023/09/22 12:09:08;;;;;;;2.73;1.07;;;20.90;1.00;;;;;;5002547;28;20917;-88
2023/09/22 12:11:34;;;;;;;1.40;0.70;;;20.80;1.00;;;;;;4999072;28;20410;-89
2023/09/22 12:14:00;;;;;;;2.35;0.80;;;21.10;1.00;;;;;;4994698;28;20430;-89
2023/09/22 12:16:27;;;;;;;2.10;1.00;;;20.10;1.00;;;;;;4994781;28;20441;-88
2023/09/22 12:18:52;;;;;;;1.50;0.90;;;19.70;1.00;;;;;;4997137;28;20398;-89
2023/09/22 12:21:19;;;;;;;2.70;1.00;;;19.80;1.00;;;;;;4996611;28;20415;-89
2023/09/22 12:23:44;;;;;;;4.40;1.13;;;19.40;1.00;;;;;;4993094;28;20405;-89
2023/09/22 12:26:10;;;;;;;1.90;0.90;;;19.00;1.00;;;;;;4992303;28;20521;-88
2023/09/22 12:28:36;;;;;;;1.90;1.10;;;19.90;1.00;;;;;;4991870;28;20437;-88
2023/09/22 12:31:02;;;;;;;2.40;0.93;;;20.80;1.00;;;;;;4987086;28;20421;-89
2023/09/22 12:33:28;;;;;;;1.80;0.80;;;20.30;1.00;;;;;;4992758;28;20395;-89
2023/09/22 12:35:57;;;;;;;1.65;0.93;;;21.50;1.00;;;;;;4989453;28;20414;-89
2023/09/22 12:38:23;;;;;;;2.55;0.73;;;21.10;1.00;;;;;;4993027;28;20406;-87
2023/09/22 12:40:50;;;;;;;2.42;0.93;;;21.80;1.00;;;;;;4986963;28;20403;-91
2023/09/22 12:43:16;;;;;;;1.63;0.70;;;20.80;1.00;;;;;;4992728;28;20449;-87
2023/09/22 12:45:42;;;;;;;2.17;0.80;;;20.90;1.00;;;;;;4991225;28;20402;-89
2023/09/22 12:48:08;;;;;;;1.25;0.77;;;21.40;1.00;;;;;;5008218;28;20387;-89
2023/09/22 12:50:34;;;;;;;2.10;0.50;;;21.00;1.00;;;;;;4998749;28;20418;-89
2023/09/22 12:53:00;;;;;;;1.52;1.13;;;21.70;1.00;;;;;;4995473;28;20483;-89
2023/09/22 12:55:26;;;;;;;2.67;1.00;;;21.70;1.00;;;;;;4996768;28;20438;-89
2023/09/22 12:57:51;;;;;;;1.23;0.90;;;21.20;1.00;;;;;;4995154;28;20766;-87
2023/09/22 13:00:17;;;;;;;1.60;0.90;;;21.10;1.00;;;;;;4996093;28;20771;-89